Time;durP1;ratioP1;P1;durP2;ratioP2;P2;SDS_P1;SDS_P2;PMS_P1;PMS_P2;Temp;Humidity;BMP_temperature;BMP_pressure;BME280_temperature;BME280_humidity;BME280_pressure;Samples;Min_cycle;Max_cycle;Signal;HPM_P1;HPM_P2
2022/03/23 00:02:26;;;;;;;15.67;14.67;;;;;;;12.62;81.73;100270.88;5022542;28;20457;-72
2022/03/23 00:04:54;;;;;;;14.57;13.87;;;;;;;12.72;81.83;100277.19;5027954;28;20042;-72
2022/03/23 00:07:21;;;;;;;14.43;13.53;;;;;;;12.76;81.77;100274.59;5026893;28;20084;-72
2022/03/23 00:09:49;;;;;;;18.73;17.53;;;;;;;12.77;81.69;100273.47;5026036;28;20136;-73
2022/03/23 00:12:24;;;;;;;15.83;14.90;;;;;;;12.65;81.80;100245.06;5016807;28;20053;-73
2022/03/23 00:14:51;;;;;;;15.10;14.20;;;;;;;12.75;81.94;100259.78;5019659;28;20127;-73
2022/03/23 00:17:17;;;;;;;14.53;13.80;;;;;;;12.74;81.69;100251.66;5008011;28;20089;-73
2022/03/23 00:19:44;;;;;;;15.13;14.13;;;;;;;12.89;81.65;100265.44;5026949;28;20080;-72
2022/03/23 00:22:11;;;;;;;13.90;13.20;;;;;;;12.88;81.57;100288.97;5022942;28;20137;-71
2022/03/23 00:24:38;;;;;;;14.20;13.40;;;;;;;12.71;81.50;100241.88;5030656;28;20137;-71
2022/03/23 00:27:06;;;;;;;14.60;13.60;;;;;;;12.89;81.51;100268.25;5028026;28;20483;-70
2022/03/23 00:29:33;;;;;;;13.97;13.07;;;;;;;12.73;81.55;100221.97;5019016;28;20132;-73
2022/03/23 00:31:59;;;;;;;14.47;13.50;;;;;;;12.80;81.52;100244.84;5028601;28;20152;-78
2022/03/23 00:34:26;;;;;;;13.27;12.63;;;;;;;12.79;81.35;100260.00;5029516;28;20100;-74
2022/03/23 00:36:53;;;;;;;12.80;12.10;;;;;;;12.97;81.29;100289.97;5041053;28;20471;-75
2022/03/23 00:39:22;;;;;;;13.73;12.93;;;;;;;12.94;81.24;100287.78;5024180;28;20144;-69
2022/03/23 00:41:52;;;;;;;15.47;14.60;;;;;;;12.94;81.12;100299.00;5029769;28;20129;-69
2022/03/23 00:44:19;;;;;;;17.20;16.10;;;;;;;12.80;80.98;100275.66;5030121;28;20404;-70
2022/03/23 00:46:46;;;;;;;18.03;16.83;;;;;;;12.91;81.25;100287.56;5029887;28;20073;-70
2022/03/23 00:49:13;;;;;;;19.47;18.27;;;;;;;12.88;81.58;100302.16;5023606;28;20137;-71
2022/03/23 00:51:41;;;;;;;20.33;19.03;;;;;;;12.79;81.65;100288.00;5029013;28;20385;-70
2022/03/23 00:54:09;;;;;;;24.00;22.37;;;;;;;12.78;81.68;100303.13;5025613;28;20122;-67
2022/03/23 00:56:37;;;;;;;25.80;24.00;;;;;;;12.54;81.71;100264.78;5023350;28;20475;-70
2022/03/23 00:59:07;;;;;;;27.10;25.50;;;;;;;12.63;82.12;100300.56;5024877;28;20141;-70
2022/03/23 01:01:34;;;;;;;30.83;27.80;;;;;;;12.22;82.17;100245.06;5023018;28;20059;-69
2022/03/23 01:04:02;;;;;;;32.30;30.47;;;;;;;12.42;82.31;100288.78;5026741;28;20520;-71
2022/03/23 01:06:29;;;;;;;30.87;29.07;;;;;;;12.39;82.67;100292.19;5029741;28;20060;-71
2022/03/23 01:08:56;;;;;;;30.40;28.60;;;;;;;12.24;82.85;100282.00;5028398;28;20144;-67
2022/03/23 01:11:23;;;;;;;32.27;30.33;;;;;;;12.13;83.11;100294.44;5027172;28;20124;-68
2022/03/23 01:13:50;;;;;;;32.43;30.40;;;;;;;11.93;83.59;100299.16;5030279;28;20140;-68
2022/03/23 01:16:17;;;;;;;33.30;30.90;;;;;;;11.99;83.76;100313.91;5029892;28;20164;-69
2022/03/23 01:18:44;;;;;;;34.47;32.07;;;;;;;12.07;83.81;100318.88;5031913;28;20198;-70
2022/03/23 01:21:13;;;;;;;34.53;31.97;;;;;;;12.03;83.75;100314.97;5025164;28;20140;-69
2022/03/23 01:23:40;;;;;;;34.83;32.37;;;;;;;12.04;84.11;100306.31;5023589;28;20138;-70
2022/03/23 01:26:07;;;;;;;34.97;32.27;;;;;;;12.14;83.89;100316.56;5023112;28;20084;-69
2022/03/23 01:28:35;;;;;;;34.57;31.97;;;;;;;12.17;83.54;100287.13;5033459;28;20133;-69
2022/03/23 01:31:01;;;;;;;33.13;30.70;;;;;;;12.11;83.62;100265.94;5033266;28;20084;-67
2022/03/23 01:33:28;;;;;;;33.17;30.57;;;;;;;12.28;83.95;100311.09;5031158;28;20136;-68
2022/03/23 01:35:55;;;;;;;32.63;30.33;;;;;;;12.15;83.89;100289.41;5029008;28;20393;-68
2022/03/23 01:38:22;;;;;;;32.73;30.43;;;;;;;11.87;84.03;100261.16;5035802;28;20580;-69
2022/03/23 01:40:50;;;;;;;32.43;29.83;;;;;;;11.93;84.36;100290.75;5032130;28;20065;-69
2022/03/23 01:43:17;;;;;;;31.37;29.17;;;;;;;11.86;84.06;100281.84;5024528;28;20169;-69
2022/03/23 01:45:44;;;;;;;33.50;31.30;;;;;;;11.71;84.76;100285.63;5027016;28;20133;-67
2022/03/23 01:48:11;;;;;;;33.10;30.60;;;;;;;11.93;84.67;100315.94;5025386;28;20057;-68
2022/03/23 01:50:41;;;;;;;33.50;31.40;;;;;;;11.97;84.35;100300.22;5025461;28;20053;-68
2022/03/23 01:53:07;;;;;;;34.47;32.23;;;;;;;11.88;84.40;100284.38;5023612;28;20128;-69
2022/03/23 01:55:34;;;;;;;35.30;33.10;;;;;;;11.56;84.82;100243.84;5025882;28;20137;-68
2022/03/23 01:58:01;;;;;;;42.13;39.73;;;;;;;11.81;84.78;100290.28;5029781;28;20139;-69
2022/03/23 02:00:29;;;;;;;32.77;30.80;;;;;;;11.80;84.80;100285.81;5026527;28;20137;-69
2022/03/23 02:02:57;;;;;;;31.27;29.47;;;;;;;11.71;84.97;100268.00;5024943;28;20515;-69
2022/03/23 02:05:25;;;;;;;27.87;26.27;;;;;;;11.82;84.86;100284.38;5024313;28;20041;-68
2022/03/23 02:07:55;;;;;;;28.97;27.37;;;;;;;11.88;84.70;100285.19;5030811;28;20570;-69
2022/03/23 02:10:22;;;;;;;28.83;27.23;;;;;;;11.75;85.00;100252.28;5026045;28;20050;-68
2022/03/23 02:12:49;;;;;;;28.00;26.43;;;;;;;11.71;85.21;100257.66;5027975;28;20136;-69
2022/03/23 02:15:21;;;;;;;26.80;25.40;;;;;;;11.59;85.46;100243.25;5026579;28;20125;-69
2022/03/23 02:17:53;;;;;;;26.20;24.80;;;;;;;11.71;85.55;100251.22;5026040;28;20132;-69
2022/03/23 02:20:20;;;;;;;25.47;24.17;;;;;;;11.66;85.40;100259.66;5026097;28;20056;-69
2022/03/23 02:22:47;;;;;;;24.27;23.07;;;;;;;11.61;85.35;100257.75;5024820;28;20592;-68
2022/03/23 02:25:21;;;;;;;23.50;22.30;;;;;;;11.56;85.61;100253.06;5028040;28;20465;-68
2022/03/23 02:27:50;;;;;;;25.70;24.30;;;;;;;11.68;85.43;100265.78;5027804;28;20128;-67
2022/03/23 02:30:18;;;;;;;27.67;26.17;;;;;;;11.69;85.70;100264.66;5029281;28;20580;-68
2022/03/23 02:32:46;;;;;;;27.50;25.90;;;;;;;11.65;85.88;100266.38;5024154;28;20195;-67
2022/03/23 02:35:13;;;;;;;27.13;25.73;;;;;;;11.70;85.97;100272.78;5022436;28;20405;-66
2022/03/23 02:37:41;;;;;;;27.10;25.70;;;;;;;11.74;85.58;100273.00;5026953;28;20049;-67
2022/03/23 02:40:10;;;;;;;30.20;28.50;;;;;;;11.69;85.95;100270.25;5024338;28;20620;-68
2022/03/23 02:42:39;;;;;;;;;;;;;;;11.38;86.86;100271.41;5026510;28;20045;-68
2022/03/23 02:45:07;;;;;;;33.47;31.17;;;;;;;11.67;86.25;100269.72;5024447;28;20017;-68
2022/03/23 02:47:34;;;;;;;34.13;32.13;;;;;;;11.70;86.10;100257.97;5030036;28;20132;-69
2022/03/23 02:50:01;;;;;;;34.70;32.50;;;;;;;11.83;85.78;100271.25;5019753;28;20042;-68
2022/03/23 02:52:28;;;;;;;33.67;31.77;;;;;;;11.86;85.58;100248.28;5018144;28;20049;-68
2022/03/23 03:03:58;;;;;;;30.80;29.10;;;;;;;11.67;85.01;100185.81;5021399;28;20057;-67
2022/03/23 03:06:25;;;;;;;28.57;27.03;;;;;;;11.98;85.06;100226.31;5024656;28;20212;-67
2022/03/23 03:08:52;;;;;;;23.80;22.57;;;;;;;11.88;85.09;100223.66;5025950;28;20468;-68
2022/03/23 03:11:20;;;;;;;23.80;22.20;;;;;;;12.13;84.79;100238.47;5029476;28;20492;-69
2022/03/23 03:13:49;;;;;;;22.00;20.47;;;;;;;12.07;84.73;100240.50;5025375;28;20077;-68
2022/03/23 03:16:17;;;;;;;20.43;19.43;;;;;;;12.12;84.52;100248.00;5027529;28;20081;-67
2022/03/23 03:18:44;;;;;;;20.13;19.10;;;;;;;11.95;84.53;100232.50;5030564;28;20054;-67
2022/03/23 03:21:11;;;;;;;18.60;17.70;;;;;;;11.97;84.47;100241.47;5028523;28;20055;-67
2022/03/23 03:23:43;;;;;;;20.00;19.00;;;;;;;12.05;84.52;100257.59;5025933;28;20048;-67
2022/03/23 03:26:12;;;;;;;20.73;19.73;;;;;;;12.03;84.43;100259.00;5022012;28;20045;-68
2022/03/23 03:28:41;;;;;;;20.23;19.23;;;;;;;11.70;84.45;100221.59;5024959;28;20085;-67
2022/03/23 03:31:12;;;;;;;21.03;19.93;;;;;;;11.73;84.46;100226.59;5022508;28;20394;-68
2022/03/23 03:33:39;;;;;;;20.23;19.23;;;;;;;11.84;84.77;100250.56;5023233;28;20050;-68
2022/03/23 03:36:06;;;;;;;20.10;19.10;;;;;;;11.66;84.99;100215.75;5025274;28;20138;-68
2022/03/23 03:38:35;;;;;;;22.23;21.03;;;;;;;11.75;84.73;100236.34;5026311;28;20087;-67
2022/03/23 03:41:03;;;;;;;20.63;19.63;;;;;;;11.76;85.06;100243.63;5029036;28;20134;-68
2022/03/23 03:43:31;;;;;;;21.57;20.57;;;;;;;11.83;85.23;100260.06;5033272;28;20100;-68
2022/03/23 03:45:59;;;;;;;23.57;22.00;;;;;;;11.54;84.85;100199.38;5027474;28;20041;-68
2022/03/23 03:48:26;;;;;;;21.30;20.30;;;;;;;11.75;85.41;100258.72;5025927;28;20069;-68
2022/03/23 03:50:54;;;;;;;21.80;20.50;;;;;;;11.83;85.23;100254.47;5030306;28;20413;-68
2022/03/23 03:53:21;;;;;;;20.57;19.57;;;;;;;11.91;85.01;100256.63;5029751;28;20140;-68
2022/03/23 03:55:57;;;;;;;21.33;20.23;;;;;;;12.01;84.93;100264.09;5020100;28;20052;-68
2022/03/23 03:58:24;;;;;;;22.43;21.23;;;;;;;11.55;84.76;100187.03;5027132;28;20088;-69
2022/03/23 04:00:51;;;;;;;22.73;21.53;;;;;;;11.98;84.74;100245.09;5027329;28;20514;-69
2022/03/23 04:03:19;;;;;;;22.20;21.00;;;;;;;12.08;84.54;100245.78;5025416;28;20061;-67
2022/03/23 04:05:46;;;;;;;22.43;21.30;;;;;;;12.14;84.39;100242.94;5026730;28;20060;-69
2022/03/23 04:08:13;;;;;;;22.17;20.97;;;;;;;12.22;84.25;100245.91;5026633;28;20123;-69
2022/03/23 04:10:39;;;;;;;22.27;21.17;;;;;;;12.35;83.93;100235.94;5025710;28;20089;-68
2022/03/23 04:13:09;;;;;;;21.93;20.60;;;;;;;12.22;84.07;100225.47;5024707;28;20525;-69
2022/03/23 04:15:36;;;;;;;20.30;19.20;;;;;;;12.33;84.14;100241.00;5028417;28;20132;-68
2022/03/23 04:18:05;;;;;;;19.60;18.60;;;;;;;12.30;83.79;100230.41;5025680;28;20548;-68
2022/03/23 04:20:32;;;;;;;19.10;17.90;;;;;;;12.35;83.70;100235.13;5019600;28;20128;-68
2022/03/23 04:22:59;;;;;;;18.83;17.77;;;;;;;12.48;83.89;100251.19;5026603;28;20045;-68
2022/03/23 04:25:26;;;;;;;17.80;16.90;;;;;;;12.44;83.51;100231.31;5015454;28;20577;-69
2022/03/23 04:27:55;;;;;;;17.70;16.63;;;;;;;12.52;83.66;100244.69;5025651;28;20128;-69
2022/03/23 04:30:27;;;;;;;17.40;16.40;;;;;;;12.66;83.35;100241.13;5023618;28;20519;-68
2022/03/23 04:32:54;;;;;;;17.47;16.33;;;;;;;12.67;83.12;100246.41;5019628;28;20129;-69
2022/03/23 04:35:22;;;;;;;17.70;16.70;;;;;;;12.67;83.28;100231.59;5026680;28;20133;-68
2022/03/23 04:37:49;;;;;;;16.60;15.80;;;;;;;12.82;83.28;100236.97;5029178;28;20130;-69
2022/03/23 04:40:17;;;;;;;16.53;15.73;;;;;;;12.86;82.71;100232.44;5025363;28;20073;-68
2022/03/23 04:42:45;;;;;;;16.97;16.07;;;;;;;12.96;82.83;100237.03;5026412;28;20128;-69
2022/03/23 04:45:14;;;;;;;17.93;16.50;;;;;;;12.96;82.85;100220.22;5026027;28;20085;-68
2022/03/23 04:47:42;;;;;;;17.40;16.50;;;;;;;12.83;82.72;100204.19;5024227;28;20137;-68
2022/03/23 04:50:10;;;;;;;17.53;16.23;;;;;;;12.95;82.69;100238.16;5020380;28;20153;-69
2022/03/23 04:52:42;;;;;;;17.17;15.93;;;;;;;12.93;82.36;100220.84;5027893;28;20135;-69
2022/03/23 04:55:10;;;;;;;15.50;14.80;;;;;;;12.88;82.34;100223.69;5006829;28;20085;-69
2022/03/23 04:57:37;;;;;;;14.47;13.73;;;;;;;12.97;82.67;100247.94;5028300;28;20144;-68
2022/03/23 05:00:10;;;;;;;13.03;12.43;;;;;;;12.76;82.13;100224.16;5022057;28;20049;-68
2022/03/23 05:02:45;;;;;;;12.83;12.23;;;;;;;12.74;81.97;100229.22;5017692;28;20061;-67
2022/03/23 05:05:13;;;;;;;;;;;;;;;12.75;82.22;100236.50;5016411;28;20080;-67
2022/03/23 05:07:41;;;;;;;14.70;13.80;;;;;;;12.63;81.93;100222.13;5023492;28;19921;-67
2022/03/23 05:10:09;;;;;;;13.17;12.57;;;;;;;12.52;81.94;100199.88;5027939;28;20527;-67
2022/03/23 05:12:37;;;;;;;12.00;11.40;;;;;;;12.73;81.96;100228.41;5023568;28;20852;-68
2022/03/23 05:15:06;;;;;;;11.87;11.37;;;;;;;12.72;81.94;100225.91;5020202;28;20054;-69
2022/03/23 05:17:33;;;;;;;11.57;11.07;;;;;;;12.55;81.85;100207.66;5023627;28;20548;-69
2022/03/23 05:20:00;;;;;;;11.97;11.37;;;;;;;12.69;82.01;100232.13;5030416;28;20508;-69
2022/03/23 05:22:27;;;;;;;11.30;10.80;;;;;;;12.62;82.09;100217.66;5031438;28;20128;-68
2022/03/23 05:24:54;;;;;;;11.40;10.80;;;;;;;12.80;81.88;100222.44;5014381;28;20133;-69
2022/03/23 05:27:21;;;;;;;11.83;11.23;;;;;;;12.71;81.84;100218.63;5028248;28;20128;-69
2022/03/23 05:29:48;;;;;;;12.37;11.27;;;;;;;12.78;82.23;100224.69;5029147;28;20133;-69
2022/03/23 05:32:18;;;;;;;10.90;10.40;;;;;;;12.68;81.94;100222.03;5036652;28;20129;-69
2022/03/23 05:34:46;;;;;;;11.68;11.07;;;;;;;12.41;81.90;100170.34;5018076;28;20096;-70
2022/03/23 05:37:13;;;;;;;11.20;10.60;;;;;;;12.83;82.09;100235.00;5020385;28;20077;-69
2022/03/23 05:39:40;;;;;;;11.60;11.00;;;;;;;12.87;81.77;100238.84;5024253;28;20133;-69
2022/03/23 05:42:07;;;;;;;11.17;10.57;;;;;;;12.92;82.04;100235.97;5028955;28;20045;-69
2022/03/23 05:44:35;;;;;;;11.60;11.10;;;;;;;12.79;81.90;100220.75;5029356;28;20136;-68
2022/03/23 05:47:03;;;;;;;11.07;10.30;;;;;;;12.72;81.67;100217.53;5026950;28;20084;-69
2022/03/23 05:49:31;;;;;;;9.97;9.47;;;;;;;12.70;81.59;100229.00;5032216;28;21218;-70
2022/03/23 05:51:58;;;;;;;10.10;9.60;;;;;;;12.73;81.47;100245.22;5023322;28;20140;-70
2022/03/23 05:54:25;;;;;;;10.10;9.60;;;;;;;12.72;81.51;100248.34;5025606;28;20045;-70
2022/03/23 05:56:52;;;;;;;9.57;9.17;;;;;;;12.38;81.32;100201.75;5026814;28;20140;-69
2022/03/23 05:59:19;;;;;;;10.90;10.40;;;;;;;12.44;81.46;100238.91;5030205;28;20084;-69
2022/03/23 06:01:46;;;;;;;9.97;9.57;;;;;;;12.45;81.69;100254.59;5031629;28;20156;-69
2022/03/23 06:04:13;;;;;;;10.97;10.47;;;;;;;12.41;81.79;100257.16;5029409;28;20081;-69
2022/03/23 06:06:41;;;;;;;10.70;10.20;;;;;;;12.34;81.64;100228.66;5022063;28;20136;-68
2022/03/23 06:09:07;;;;;;;11.00;10.50;;;;;;;12.41;81.61;100259.97;5025798;28;20095;-70
2022/03/23 06:11:34;;;;;;;11.13;10.63;;;;;;;12.31;81.70;100260.91;5032665;28;20084;-69
2022/03/23 06:14:01;;;;;;;9.97;9.57;;;;;;;12.30;81.61;100262.03;5029862;28;20063;-68
2022/03/23 06:16:28;;;;;;;11.33;10.73;;;;;;;12.27;81.35;100250.59;5028215;28;20484;-69
2022/03/23 06:18:55;;;;;;;12.40;11.80;;;;;;;12.26;81.55;100255.38;5027493;28;20544;-68
2022/03/23 06:21:22;;;;;;;12.63;12.03;;;;;;;12.31;81.45;100258.13;5028764;28;20133;-67
2022/03/23 06:23:49;;;;;;;12.90;12.30;;;;;;;12.28;81.61;100258.72;5027886;28;20056;-69
2022/03/23 06:26:20;;;;;;;12.67;12.07;;;;;;;12.27;81.65;100256.19;5026358;28;20042;-68
2022/03/23 06:28:47;;;;;;;13.57;12.87;;;;;;;12.39;81.71;100284.63;5028329;28;20099;-69
2022/03/23 06:31:14;;;;;;;15.83;14.93;;;;;;;12.34;82.00;100273.47;5027601;28;20079;-68
2022/03/23 06:33:40;;;;;;;16.90;16.10;;;;;;;12.20;81.99;100266.94;5031072;28;20061;-69
2022/03/23 06:36:07;;;;;;;16.93;15.77;;;;;;;11.90;82.16;100227.00;5026933;28;20056;-69
2022/03/23 06:38:34;;;;;;;16.30;15.53;;;;;;;12.09;82.33;100261.44;5029943;28;20136;-69
2022/03/23 06:41:01;;;;;;;16.17;15.47;;;;;;;12.18;82.33;100281.22;5026017;28;20584;-70
2022/03/23 06:43:28;;;;;;;15.67;14.97;;;;;;;12.24;82.44;100301.59;5027055;28;20128;-70
2022/03/23 06:45:55;;;;;;;15.40;14.70;;;;;;;12.24;82.21;100298.78;5029926;28;21312;-69
2022/03/23 06:48:21;;;;;;;16.20;15.40;;;;;;;12.28;82.21;100299.88;5025556;28;20057;-70
2022/03/23 06:50:49;;;;;;;15.53;14.63;;;;;;;12.33;82.30;100313.81;5029709;28;20444;-68
2022/03/23 06:53:15;;;;;;;16.03;15.00;;;;;;;12.31;82.41;100299.28;5026976;28;20152;-69
2022/03/23 06:55:42;;;;;;;15.33;14.53;;;;;;;12.28;82.51;100309.13;5026041;28;20128;-68
2022/03/23 06:58:09;;;;;;;16.80;16.00;;;;;;;12.17;82.46;100292.72;5025038;28;20168;-69
2022/03/23 07:00:36;;;;;;;17.83;17.03;;;;;;;12.03;82.63;100265.47;5023128;28;20129;-69
2022/03/23 07:03:05;;;;;;;17.10;16.30;;;;;;;12.22;82.74;100284.28;5024958;28;20152;-68
2022/03/23 07:05:34;;;;;;;16.43;15.63;;;;;;;12.38;82.59;100305.34;5023617;28;20520;-68
2022/03/23 07:10:53;;;;;;;16.00;14.90;;;;;;;12.47;82.40;100306.34;5026226;28;20054;-69
2022/03/23 07:13:20;;;;;;;16.47;15.67;;;;;;;12.33;82.16;100285.81;5027154;28;20120;-69
2022/03/23 07:15:47;;;;;;;16.13;15.33;;;;;;;12.36;82.04;100285.22;5022504;28;21886;-70
2022/03/23 07:18:14;;;;;;;15.97;15.07;;;;;;;12.43;81.87;100291.28;5027059;28;20053;-70
2022/03/23 07:20:41;;;;;;;16.50;15.60;;;;;;;12.57;82.20;100309.03;5023143;28;20188;-71
2022/03/23 07:23:08;;;;;;;16.70;16.00;;;;;;;12.55;82.26;100307.69;5024954;28;20077;-69
2022/03/23 07:25:35;;;;;;;16.50;15.60;;;;;;;12.50;82.27;100296.53;5027385;28;20140;-70
2022/03/23 07:28:08;;;;;;;16.53;15.83;;;;;;;12.71;82.21;100311.09;5024572;28;20134;-68
2022/03/23 07:30:50;;;;;;;17.10;16.30;;;;;;;12.73;81.97;100289.22;5024814;28;20061;-69
2022/03/23 07:33:17;;;;;;;18.20;17.20;;;;;;;12.97;81.74;100306.81;5025171;28;20107;-69
2022/03/23 07:35:44;;;;;;;16.57;15.67;;;;;;;13.14;81.69;100316.66;5023943;28;20587;-69
2022/03/23 07:38:11;;;;;;;16.53;15.73;;;;;;;13.12;81.64;100302.09;5022570;28;20057;-68
2022/03/23 07:40:37;;;;;;;17.67;16.77;;;;;;;13.27;81.56;100321.53;5023318;28;20460;-69
2022/03/23 07:43:04;;;;;;;21.93;20.73;;;;;;;13.19;81.59;100296.94;5022989;28;20049;-67
2022/03/23 07:45:31;;;;;;;17.47;16.47;;;;;;;13.31;81.41;100296.53;5021494;28;20564;-68
2022/03/23 07:47:58;;;;;;;20.87;19.57;;;;;;;13.43;81.41;100308.91;5021498;28;20564;-68
2022/03/23 07:50:25;;;;;;;21.00;19.27;;;;;;;13.44;81.41;100302.19;5023293;28;20057;-68
2022/03/23 07:52:52;;;;;;;18.03;16.83;;;;;;;13.59;81.21;100322.69;5020297;28;20050;-67
2022/03/23 07:55:19;;;;;;;23.20;21.90;;;;;;;13.55;81.31;100311.25;5026801;28;20077;-68
2022/03/23 07:57:51;;;;;;;18.03;16.97;;;;;;;13.68;81.28;100326.47;5025375;28;20054;-67
2022/03/23 08:00:36;;;;;;;17.38;16.48;;;;;;;13.68;81.12;100320.88;5026207;28;20053;-67
2022/03/23 08:03:05;;;;;;;17.80;16.60;;;;;;;13.65;81.17;100307.44;5026955;28;20050;-67
2022/03/23 08:05:36;;;;;;;17.70;16.80;;;;;;;13.64;81.08;100308.56;5012390;28;20407;-67
2022/03/23 08:08:03;;;;;;;20.07;18.97;;;;;;;13.62;81.28;100303.28;5023830;28;20054;-68
2022/03/23 08:10:30;;;;;;;17.67;16.83;;;;;;;13.62;81.18;100310.88;5025665;28;20139;-68
2022/03/23 08:12:57;;;;;;;17.53;16.47;;;;;;;13.66;81.05;100307.13;5026422;28;20057;-68
2022/03/23 08:15:29;;;;;;;18.02;16.92;;;;;;;13.77;81.15;100318.16;5026013;28;20076;-68
2022/03/23 08:17:56;;;;;;;19.93;18.50;;;;;;;13.86;81.32;100328.38;5030413;28;20457;-67
2022/03/23 08:20:35;;;;;;;20.23;19.03;;;;;;;13.86;81.19;100324.75;5029102;28;20159;-66
2022/03/23 08:23:05;;;;;;;17.70;16.48;;;;;;;13.88;81.36;100314.88;5022968;28;20412;-68
2022/03/23 08:25:33;;;;;;;18.38;17.25;;;;;;;13.99;81.29;100330.41;5027162;28;20081;-68
2022/03/23 08:28:03;;;;;;;17.53;16.43;;;;;;;13.89;81.16;100316.53;5025008;28;20343;-68
2022/03/23 08:30:30;;;;;;;20.23;18.87;;;;;;;13.89;81.16;100315.72;5015897;28;20081;-67
2022/03/23 08:32:57;;;;;;;16.97;15.97;;;;;;;13.88;81.09;100314.03;5025620;28;20132;-67
2022/03/23 08:35:24;;;;;;;20.53;18.83;;;;;;;13.98;80.96;100337.16;5021321;28;20140;-67
2022/03/23 08:37:54;;;;;;;28.08;23.83;;;;;;;13.88;80.78;100325.25;5029459;28;20168;-68
2022/03/23 08:40:21;;;;;;;19.43;17.77;;;;;;;13.94;80.90;100329.66;5028043;28;20125;-68
2022/03/23 08:42:48;;;;;;;17.83;16.53;;;;;;;14.02;81.22;100339.31;5023221;28;20148;-67
2022/03/23 08:45:16;;;;;;;17.67;16.47;;;;;;;14.02;81.20;100337.38;5020541;28;20053;-68
2022/03/23 08:47:44;;;;;;;23.17;21.87;;;;;;;14.02;81.29;100337.38;5026956;28;20216;-68
2022/03/23 08:50:12;;;;;;;20.33;18.97;;;;;;;14.03;81.07;100338.22;5026635;28;20563;-69
2022/03/23 08:52:39;;;;;;;17.87;16.67;;;;;;;14.04;81.26;100346.31;5029278;28;20073;-68
2022/03/23 08:55:09;;;;;;;18.23;17.13;;;;;;;14.05;81.27;100342.38;5021987;28;20042;-67
2022/03/23 08:57:39;;;;;;;15.77;14.87;;;;;;;14.09;81.09;100348.22;5025088;28;20127;-68
2022/03/23 09:00:07;;;;;;;17.23;16.13;;;;;;;14.09;81.18;100339.78;5032669;28;20096;-67
2022/03/23 09:02:34;;;;;;;16.97;15.87;;;;;;;14.10;81.21;100338.63;5032567;28;20089;-68
2022/03/23 09:05:01;;;;;;;17.37;16.23;;;;;;;14.09;81.60;100325.75;5031213;28;20050;-69
2022/03/23 09:07:28;;;;;;;18.47;16.80;;;;;;;14.11;81.30;100331.88;5024842;28;20572;-68
2022/03/23 09:09:54;;;;;;;18.70;17.50;;;;;;;14.13;81.21;100333.22;5027670;28;20417;-68
2022/03/23 09:12:21;;;;;;;16.67;15.23;;;;;;;14.29;81.19;100363.81;5021232;28;20084;-68
2022/03/23 09:14:48;;;;;;;17.30;15.90;;;;;;;14.09;81.16;100325.75;5025173;28;20132;-68
2022/03/23 09:17:15;;;;;;;16.60;15.30;;;;;;;14.22;81.07;100344.56;5023210;28;20589;-68
2022/03/23 09:19:42;;;;;;;15.30;14.20;;;;;;;14.29;80.86;100356.25;5028851;28;20192;-68
2022/03/23 09:22:09;;;;;;;14.93;13.53;;;;;;;14.16;80.92;100335.41;5022318;28;20054;-68
2022/03/23 09:24:36;;;;;;;14.20;13.20;;;;;;;14.23;80.85;100343.44;5023333;28;20508;-68
2022/03/23 09:27:03;;;;;;;15.30;14.17;;;;;;;14.23;80.68;100351.88;5030194;28;20054;-68
2022/03/23 09:29:30;;;;;;;14.38;13.30;;;;;;;14.25;80.72;100366.41;5028578;28;20133;-67
2022/03/23 09:31:57;;;;;;;13.83;12.73;;;;;;;14.23;80.66;100361.13;5026484;28;20140;-68
2022/03/23 09:34:24;;;;;;;14.80;13.60;;;;;;;14.18;80.42;100374.41;5033274;28;20056;-68
2022/03/23 09:39:36;;;;;;;13.10;12.30;;;;;;;14.04;80.41;100345.47;5025719;28;20136;-68
2022/03/23 09:42:05;;;;;;;13.37;12.47;;;;;;;13.92;80.31;100344.00;5025375;28;20054;-67
2022/03/23 09:44:34;;;;;;;12.80;11.80;;;;;;;13.92;80.17;100360.84;5028475;28;20053;-68
2022/03/23 09:47:01;;;;;;;13.93;13.13;;;;;;;13.88;80.15;100357.00;5026758;28;20103;-68
2022/03/23 09:49:33;;;;;;;12.90;11.97;;;;;;;13.93;80.24;100364.47;5035823;28;20572;-68
2022/03/23 09:52:01;;;;;;;11.60;11.00;;;;;;;13.80;80.18;100366.09;5023113;28;20107;-68
2022/03/23 09:54:28;;;;;;;13.33;12.63;;;;;;;13.76;79.99;100370.66;5028941;28;20140;-68
2022/03/23 09:56:55;;;;;;;12.23;11.40;;;;;;;13.84;80.22;100378.38;5024180;28;20500;-67
2022/03/23 09:59:22;;;;;;;12.57;11.60;;;;;;;13.86;80.60;100376.09;5027323;28;20153;-68
2022/03/23 10:01:49;;;;;;;12.50;11.70;;;;;;;13.92;80.90;100377.69;5025608;28;20391;-67
2022/03/23 10:04:35;;;;;;;19.40;15.10;;;;;;;14.05;81.08;100375.22;5025239;28;20053;-67
2022/03/23 10:07:10;;;;;;;11.97;11.17;;;;;;;13.99;80.62;100383.75;5030410;28;20045;-68
2022/03/23 10:09:49;;;;;;;13.10;12.30;;;;;;;13.96;80.73;100377.91;5029940;28;20133;-67
2022/03/23 10:12:54;;;;;;;12.50;11.50;;;;;;;14.05;81.17;100392.06;5027238;28;20073;-67
2022/03/23 10:15:51;;;;;;;12.17;11.17;;;;;;;14.10;81.06;100375.13;5024944;28;20073;-68
2022/03/23 10:18:40;;;;;;;11.53;10.70;;;;;;;14.18;80.83;100375.25;5023058;28;20520;-68
2022/03/23 10:21:07;;;;;;;12.30;11.10;;;;;;;14.17;80.88;100361.53;5024325;28;20053;-66
2022/03/23 10:23:35;;;;;;;12.03;11.23;;;;;;;14.18;80.80;100346.31;5018846;28;20667;-68
2022/03/23 10:26:12;;;;;;;17.35;15.65;;;;;;;14.27;81.12;100340.84;5027268;28;20050;-67
2022/03/23 10:28:39;;;;;;;12.23;11.43;;;;;;;14.39;81.16;100347.63;5028289;28;20454;-67
2022/03/23 10:31:20;;;;;;;14.03;12.63;;;;;;;14.64;81.29;100362.34;5028937;28;20131;-67
2022/03/23 10:34:08;;;;;;;13.63;12.43;;;;;;;14.76;81.84;100371.06;5023284;28;20085;-67
2022/03/23 10:36:51;;;;;;;13.03;11.93;;;;;;;14.60;81.79;100336.84;5021436;28;20056;-67
2022/03/23 10:39:28;;;;;;;13.57;12.60;;;;;;;14.96;81.56;100383.84;5030811;28;20132;-67
2022/03/23 10:42:17;;;;;;;12.30;11.15;;;;;;;14.92;81.31;100378.03;5021457;28;20133;-68
2022/03/23 10:44:45;;;;;;;13.40;12.07;;;;;;;14.99;81.73;100368.34;5025353;28;20139;-67
2022/03/23 10:47:28;;;;;;;12.57;11.70;;;;;;;15.07;81.33;100367.56;5021647;28;20560;-67
2022/03/23 10:50:04;;;;;;;10.52;10.00;;;;;;;14.99;81.18;100363.53;5023112;28;20077;-67
2022/03/23 10:52:32;;;;;;;12.20;11.30;;;;;;;14.81;79.50;100379.38;5021447;28;20049;-68
2022/03/23 10:55:04;;;;;;;14.48;13.48;;;;;;;14.91;80.24;100376.38;5027493;28;20041;-67
2022/03/23 10:57:51;;;;;;;17.73;14.45;;;;;;;14.89;79.93;100381.47;5032868;28;20076;-67
2022/03/23 11:00:32;;;;;;;12.05;11.15;;;;;;;14.74;79.76;100362.13;5027794;28;20049;-67
2022/03/23 11:03:00;;;;;;;12.93;11.73;;;;;;;14.67;79.86;100348.47;5025303;28;20050;-68
2022/03/23 11:05:48;;;;;;;11.55;10.70;;;;;;;14.77;80.03;100369.94;5026228;28;20172;-67
2022/03/23 11:08:21;;;;;;;13.30;12.50;;;;;;;14.81;79.98;100381.38;5032559;28;20494;-67
2022/03/23 11:16:56;;;;;;;11.13;10.38;;;;;;;14.84;79.70;100370.34;5039138;28;20056;-68
2022/03/23 11:19:26;;;;;;;14.70;13.90;;;;;;;14.95;80.21;100381.38;5023416;28;20145;-68
2022/03/23 11:21:59;;;;;;;15.43;14.00;;;;;;;14.78;79.31;100377.22;5021780;28;20057;-68
2022/03/23 11:24:29;;;;;;;10.43;9.85;;;;;;;14.68;78.57;100380.22;5029806;28;20128;-68
2022/03/23 11:26:56;;;;;;;11.93;11.25;;;;;;;14.69;79.09;100365.03;5033176;28;20084;-68
2022/03/23 11:29:23;;;;;;;10.73;10.23;;;;;;;14.58;78.09;100372.81;5027693;28;20128;-68
2022/03/23 11:31:53;;;;;;;11.48;10.77;;;;;;;14.67;78.27;100353.28;5027994;28;20107;-67
2022/03/23 11:34:24;;;;;;;11.23;10.63;;;;;;;14.57;77.90;100334.63;5029556;28;20049;-68
2022/03/23 11:36:53;;;;;;;13.05;12.10;;;;;;;15.02;79.45;100348.03;5027301;28;20107;-67
2022/03/23 11:39:22;;;;;;;13.90;12.90;;;;;;;15.10;79.87;100331.22;5028050;28;20053;-66